createdAt,value
2022-12-08T00:01:24.812Z,16.27
2022-12-08T00:03:52.419Z,15.85
2022-12-08T00:06:42.595Z,14.73
2022-12-08T00:09:38.768Z,14.25
2022-12-08T00:12:12.338Z,15.27
2022-12-08T00:14:44.011Z,16.00
2022-12-08T00:17:13.632Z,13.68
2022-12-08T00:19:40.929Z,11.55
2022-12-08T00:22:08.810Z,14.10
2022-12-08T00:24:40.672Z,12.07
2022-12-08T00:27:13.230Z,12.85
2022-12-08T00:29:40.410Z,12.93
2022-12-08T00:32:07.430Z,13.00
2022-12-08T00:34:34.525Z,10.65
2022-12-08T00:37:01.559Z,14.60
2022-12-08T00:39:28.542Z,16.20
2022-12-08T00:42:13.596Z,14.25
2022-12-08T00:44:42.526Z,15.15
2022-12-08T00:47:09.809Z,16.15
2022-12-08T00:49:37.977Z,16.30
2022-12-08T00:52:04.836Z,14.93
2022-12-08T00:54:31.958Z,17.45
2022-12-08T00:56:58.724Z,15.27
2022-12-08T00:59:25.740Z,18.58
2022-12-08T01:01:52.508Z,18.15
2022-12-08T01:04:20.379Z,17.77
2022-12-08T01:06:48.089Z,18.48
2022-12-08T01:09:16.844Z,20.48
2022-12-08T01:11:44.706Z,18.27
2022-12-08T01:14:12.912Z,19.30
2022-12-08T01:16:41.532Z,18.75
2022-12-08T01:19:14.101Z,19.13
2022-12-08T01:21:41.195Z,20.05
2022-12-08T01:24:14.831Z,18.70
2022-12-08T01:26:42.090Z,18.83
2022-12-08T01:29:09.962Z,18.00
2022-12-08T01:31:37.001Z,18.95
2022-12-08T01:34:04.553Z,19.33
2022-12-08T01:36:33.544Z,17.08
2022-12-08T01:39:01.716Z,16.83
2022-12-08T01:41:31.270Z,17.38
2022-12-08T01:44:24.287Z,18.33
2022-12-08T01:46:53.562Z,17.63
2022-12-08T01:49:24.673Z,17.98
2022-12-08T01:52:06.979Z,18.23
2022-12-08T01:54:40.617Z,18.52
2022-12-08T01:57:36.267Z,20.15
2022-12-08T02:00:10.506Z,18.35
2022-12-08T02:03:02.451Z,17.75
2022-12-08T02:05:33.155Z,18.90
2022-12-08T02:08:04.421Z,19.58
2022-12-08T02:10:35.741Z,18.85
2022-12-08T02:13:04.058Z,19.55
2022-12-08T02:15:56.798Z,18.52
2022-12-08T02:18:32.254Z,18.52
2022-12-08T02:21:37.859Z,17.85
2022-12-08T02:24:16.340Z,18.92
2022-12-08T02:27:01.969Z,18.63
2022-12-08T02:30:05.018Z,18.10
2022-12-08T02:32:51.392Z,20.13
2022-12-08T02:35:27.810Z,18.35
2022-12-08T02:38:16.423Z,19.13
2022-12-08T02:40:57.431Z,16.77
2022-12-08T02:43:47.130Z,18.55
2022-12-08T02:46:22.068Z,19.33
2022-12-08T02:48:52.309Z,17.25
2022-12-08T02:51:19.824Z,20.67
2022-12-08T02:53:48.014Z,21.65
2022-12-08T02:56:17.739Z,20.15
2022-12-08T02:59:24.962Z,20.80
2022-12-08T03:02:18.008Z,16.70
2022-12-08T03:05:23.638Z,19.65
2022-12-08T03:07:55.676Z,18.80
2022-12-08T03:10:38.287Z,19.48
2022-12-08T03:13:12.003Z,20.30
2022-12-08T03:15:40.352Z,18.40
2022-12-08T03:18:11.237Z,21.10
2022-12-08T03:20:40.470Z,20.92
2022-12-08T03:23:11.992Z,20.17
2022-12-08T03:25:51.332Z,20.30
2022-12-08T03:28:18.132Z,19.52
2022-12-08T03:30:49.808Z,19.05
2022-12-08T03:33:23.700Z,20.63
2022-12-08T03:35:51.698Z,19.55
2022-12-08T03:38:18.613Z,19.80
2022-12-08T03:41:05.991Z,19.55
2022-12-08T03:43:32.734Z,18.08
2022-12-08T03:45:59.804Z,18.02
2022-12-08T03:48:26.645Z,20.75
2022-12-08T03:50:53.803Z,18.83
2022-12-08T03:53:20.680Z,19.05
2022-12-08T03:55:47.686Z,19.65
2022-12-08T03:58:14.451Z,21.30
2022-12-08T04:00:41.448Z,18.75
2022-12-08T04:03:08.362Z,20.00
2022-12-08T04:05:35.430Z,22.35
2022-12-08T04:08:02.247Z,17.60
2022-12-08T04:10:29.391Z,18.70
2022-12-08T04:12:57.191Z,20.25
2022-12-08T04:15:24.452Z,20.08
2022-12-08T04:17:51.206Z,19.70
2022-12-08T04:20:18.524Z,20.33
2022-12-08T04:22:45.314Z,18.63
2022-12-08T04:25:12.650Z,20.00
2022-12-08T04:27:39.414Z,18.77
2022-12-08T04:30:07.464Z,19.63
2022-12-08T04:32:34.493Z,20.67
2022-12-08T04:35:01.513Z,20.05
2022-12-08T04:37:28.588Z,19.52
2022-12-08T04:39:55.598Z,19.13
2022-12-08T04:42:22.372Z,19.83
2022-12-08T04:44:49.361Z,20.15
2022-12-08T04:47:16.158Z,19.73
2022-12-08T04:49:43.482Z,19.60
2022-12-08T04:52:10.276Z,21.02
2022-12-08T04:54:37.376Z,18.52
2022-12-08T04:57:04.195Z,18.67
2022-12-08T04:59:31.388Z,18.63
2022-12-08T05:01:58.207Z,18.85
2022-12-08T05:04:25.377Z,20.20
2022-12-08T05:06:52.124Z,19.92
2022-12-08T05:09:19.162Z,20.45
2022-12-08T05:11:49.003Z,19.25
2022-12-08T05:14:18.654Z,19.42
2022-12-08T05:16:46.608Z,20.25
2022-12-08T05:19:14.319Z,20.08
2022-12-08T05:21:41.813Z,20.58
2022-12-08T05:24:09.378Z,20.50
2022-12-08T05:26:36.321Z,19.90
2022-12-08T05:29:06.368Z,19.98
2022-12-08T05:31:33.179Z,19.10
2022-12-08T05:34:03.164Z,20.02
2022-12-08T05:36:30.320Z,20.08
2022-12-08T05:38:58.486Z,21.00
2022-12-08T05:41:25.381Z,22.20
2022-12-08T05:43:52.500Z,21.83
2022-12-08T05:46:19.323Z,22.38
2022-12-08T05:48:46.414Z,22.65
2022-12-08T05:51:19.813Z,23.45
2022-12-08T05:56:13.819Z,20.38
2022-12-08T05:58:41.382Z,21.40
2022-12-08T06:01:17.719Z,20.98
2022-12-08T06:03:44.764Z,21.42
2022-12-08T06:06:11.511Z,20.35
2022-12-08T06:08:38.543Z,20.75
2022-12-08T06:11:05.299Z,19.45
2022-12-08T06:13:32.396Z,22.15
2022-12-08T06:16:08.247Z,21.02
2022-12-08T06:18:35.400Z,20.35
2022-12-08T06:21:10.263Z,19.38
2022-12-08T06:23:38.095Z,20.42
2022-12-08T06:26:10.914Z,20.05
2022-12-08T06:28:38.213Z,19.48
2022-12-08T06:31:15.458Z,19.27
2022-12-08T06:33:43.026Z,20.48
2022-12-08T06:36:11.893Z,20.33
2022-12-08T06:38:43.086Z,21.60
2022-12-08T06:41:10.920Z,21.73
2022-12-08T06:43:38.330Z,22.88
2022-12-08T06:46:07.305Z,23.25
2022-12-08T06:48:34.584Z,19.10
2022-12-08T06:51:09.593Z,19.42
2022-12-08T06:53:36.945Z,18.65
2022-12-08T06:56:07.725Z,20.65
2022-12-08T06:58:35.763Z,21.38
2022-12-08T07:01:20.983Z,20.38
2022-12-08T07:03:48.146Z,18.48
2022-12-08T07:06:25.116Z,20.25
2022-12-08T07:08:52.216Z,18.25
2022-12-08T07:11:22.012Z,17.75
2022-12-08T07:13:50.355Z,19.83
2022-12-08T07:16:17.163Z,19.65
2022-12-08T07:18:44.346Z,20.20
2022-12-08T07:21:13.303Z,20.50
2022-12-08T07:23:41.160Z,19.13
2022-12-08T07:26:11.116Z,22.00
2022-12-08T07:28:39.509Z,21.48
2022-12-08T07:31:07.568Z,19.40
2022-12-08T07:33:36.149Z,21.45
2022-12-08T07:36:05.685Z,20.05
2022-12-08T07:38:33.019Z,20.77
2022-12-08T07:41:00.157Z,21.48
2022-12-08T07:43:27.342Z,19.70
2022-12-08T07:45:54.184Z,21.00
2022-12-08T07:48:21.315Z,22.83
2022-12-08T07:50:48.193Z,20.52
2022-12-08T07:53:15.381Z,20.13
2022-12-08T07:55:43.475Z,21.08
2022-12-08T07:58:11.414Z,20.92
2022-12-08T08:00:38.245Z,22.35
2022-12-08T08:03:06.268Z,21.27
2022-12-08T08:05:33.110Z,20.55
2022-12-08T08:08:00.317Z,22.90
2022-12-08T08:10:27.174Z,21.63
2022-12-08T08:12:54.288Z,21.92
2022-12-08T08:15:21.441Z,21.25
2022-12-08T08:17:52.214Z,21.50
2022-12-08T08:20:20.776Z,20.42
2022-12-08T08:22:52.077Z,22.88
2022-12-08T08:25:20.458Z,23.05
2022-12-08T08:27:48.212Z,22.98
2022-12-08T08:30:20.293Z,23.27
2022-12-08T08:32:49.097Z,23.10
2022-12-08T08:35:16.033Z,21.55
2022-12-08T08:37:47.272Z,22.50
2022-12-08T08:40:16.146Z,22.02
2022-12-08T08:42:43.190Z,23.42
2022-12-08T08:45:11.404Z,23.90
2022-12-08T08:47:38.476Z,24.60
2022-12-08T08:50:06.223Z,21.70
2022-12-08T08:52:33.587Z,22.33
2022-12-08T08:55:00.364Z,22.38
2022-12-08T08:57:27.447Z,24.15
2022-12-08T08:59:54.336Z,23.55
2022-12-08T09:02:21.996Z,23.73
2022-12-08T09:04:49.121Z,22.85
2022-12-08T09:07:16.523Z,25.17
2022-12-08T09:09:43.640Z,23.88
2022-12-08T09:12:11.787Z,22.40
2022-12-08T09:14:38.655Z,23.08
2022-12-08T09:17:06.921Z,21.52
2022-12-08T09:19:33.749Z,23.40
2022-12-08T09:22:00.839Z,23.42
2022-12-08T09:24:27.566Z,22.35
2022-12-08T09:26:54.623Z,22.35
2022-12-08T09:29:21.390Z,22.23
2022-12-08T09:31:48.505Z,22.45
2022-12-08T09:34:15.309Z,22.23
2022-12-08T09:36:42.387Z,22.95
2022-12-08T09:39:09.314Z,21.90
2022-12-08T09:41:51.873Z,24.30
2022-12-08T09:44:57.284Z,28.13
2022-12-08T09:47:35.269Z,26.50
2022-12-08T09:50:27.503Z,22.67
2022-12-08T09:53:13.578Z,22.88
2022-12-08T09:55:59.123Z,21.20
2022-12-08T09:59:00.229Z,21.85
2022-12-08T10:01:31.267Z,20.58
2022-12-08T10:03:59.171Z,20.88
2022-12-08T10:06:45.361Z,19.95
2022-12-08T10:09:23.261Z,22.30
2022-12-08T10:12:39.946Z,21.00
2022-12-08T10:15:09.928Z,22.33
2022-12-08T10:17:42.520Z,19.88
2022-12-08T10:20:20.395Z,21.23
2022-12-08T10:22:53.264Z,19.45
2022-12-08T10:25:33.216Z,19.50
2022-12-08T10:28:00.351Z,19.63
2022-12-08T10:30:27.573Z,18.75
2022-12-08T10:32:55.064Z,21.90
2022-12-08T10:35:23.364Z,18.38
2022-12-08T10:38:01.452Z,18.80
2022-12-08T10:40:37.995Z,20.27
2022-12-08T10:43:17.583Z,18.85
2022-12-08T10:45:45.045Z,16.90
2022-12-08T10:48:19.325Z,18.65
2022-12-08T10:50:54.252Z,20.08
2022-12-08T10:53:30.298Z,17.45
2022-12-08T10:56:03.428Z,17.77
2022-12-08T10:58:36.665Z,20.30
2022-12-08T11:01:17.878Z,19.45
2022-12-08T11:03:48.974Z,20.63
2022-12-08T11:06:18.396Z,18.75
2022-12-08T11:08:58.830Z,18.63
2022-12-08T11:11:47.593Z,18.20
2022-12-08T11:14:26.179Z,18.95
2022-12-08T11:17:05.574Z,17.63
2022-12-08T11:19:37.848Z,19.83
2022-12-08T11:22:41.818Z,17.10
2022-12-08T11:25:08.508Z,17.40
2022-12-08T11:27:37.603Z,16.13
2022-12-08T11:30:14.586Z,16.27
2022-12-08T11:32:44.911Z,15.13
2022-12-08T11:35:21.323Z,16.38
2022-12-08T11:37:48.896Z,14.23
2022-12-08T11:40:43.390Z,15.25
2022-12-08T11:43:26.461Z,12.27
2022-12-08T11:46:00.072Z,9.50
2022-12-08T11:48:35.675Z,11.55
2022-12-08T11:51:16.437Z,13.48
2022-12-08T11:53:49.568Z,11.30
2022-12-08T11:56:33.175Z,10.60
2022-12-08T11:59:13.517Z,10.73
2022-12-08T12:01:42.736Z,10.27
2022-12-08T12:04:28.083Z,9.68
2022-12-08T12:07:09.863Z,10.88
2022-12-08T12:09:48.977Z,10.13
2022-12-08T12:12:44.119Z,9.00
2022-12-08T12:15:36.722Z,11.18
2022-12-08T12:18:25.091Z,10.32
2022-12-08T12:21:00.710Z,9.75
2022-12-08T12:23:43.986Z,10.25
2022-12-08T12:26:20.170Z,10.45
2022-12-08T12:28:55.906Z,10.13
2022-12-08T12:31:30.290Z,10.02
2022-12-08T12:34:21.563Z,9.35
2022-12-08T12:37:03.502Z,9.70
2022-12-08T12:39:34.088Z,9.80
2022-12-08T12:42:03.809Z,10.02
2022-12-08T12:44:33.566Z,10.43
2022-12-08T12:47:02.735Z,9.25
2022-12-08T12:50:05.978Z,8.60
2022-12-08T12:52:33.148Z,8.27
2022-12-08T12:54:59.811Z,8.10
2022-12-08T12:57:37.484Z,8.95
2022-12-08T13:00:04.560Z,8.82
2022-12-08T13:02:49.172Z,8.60
2022-12-08T13:05:35.873Z,8.40
2022-12-08T13:08:07.851Z,10.45
2022-12-08T13:10:38.049Z,9.02
2022-12-08T13:13:12.240Z,9.95
2022-12-08T13:18:18.581Z,8.75
2022-12-08T13:20:55.178Z,9.57
2022-12-08T13:23:37.217Z,8.85
2022-12-08T13:26:20.813Z,8.02
2022-12-08T13:29:01.242Z,7.95
2022-12-08T13:31:37.784Z,10.23
2022-12-08T13:34:06.581Z,12.80
2022-12-08T13:36:38.925Z,12.98
2022-12-08T13:39:07.481Z,12.20
2022-12-08T13:41:48.037Z,10.65
2022-12-08T13:47:34.022Z,10.27
2022-12-08T13:54:35.391Z,9.30
2022-12-08T13:59:25.268Z,10.05
2022-12-08T14:04:47.893Z,10.38
2022-12-08T14:07:11.958Z,9.07
2022-12-08T14:09:40.220Z,10.32
2022-12-08T14:12:27.275Z,8.88
2022-12-08T14:15:04.366Z,10.23
2022-12-08T14:17:32.978Z,9.32
2022-12-08T14:20:02.547Z,9.10
2022-12-08T14:22:36.200Z,10.65
2022-12-08T14:25:04.731Z,10.57
2022-12-08T14:27:36.243Z,10.00
2022-12-08T14:30:44.686Z,10.65
2022-12-08T14:33:15.500Z,10.43
2022-12-08T14:35:42.404Z,10.48
2022-12-08T14:38:15.219Z,10.10
2022-12-08T14:40:44.499Z,10.85
2022-12-08T14:43:19.398Z,9.43
2022-12-08T14:45:47.731Z,9.30
2022-12-08T14:48:22.177Z,10.85
2022-12-08T14:51:04.074Z,11.05
2022-12-08T14:53:39.961Z,10.07
2022-12-08T14:56:20.242Z,10.13
2022-12-08T14:58:50.195Z,9.95
2022-12-08T15:01:23.401Z,12.10
2022-12-08T15:03:51.643Z,11.35
2022-12-08T15:06:22.141Z,11.88
2022-12-08T15:08:56.121Z,12.35
2022-12-08T15:11:22.857Z,11.68
2022-12-08T15:14:27.048Z,12.27
2022-12-08T15:16:55.320Z,12.52
2022-12-08T15:19:24.498Z,13.52
2022-12-08T15:21:51.313Z,14.32
2022-12-08T15:24:22.793Z,14.18
2022-12-08T15:26:51.467Z,14.15
2022-12-08T15:29:24.743Z,14.65
2022-12-08T15:31:53.343Z,14.73
2022-12-08T15:34:20.866Z,15.07
2022-12-08T15:36:50.049Z,13.82
2022-12-08T15:39:31.985Z,15.55
2022-12-08T15:41:59.885Z,14.65
2022-12-08T15:44:27.343Z,12.93
2022-12-08T15:46:54.431Z,14.18
2022-12-08T15:49:23.859Z,14.85
2022-12-08T15:51:56.516Z,14.02
2022-12-08T15:54:27.781Z,13.07
2022-12-08T15:59:45.661Z,12.50
2022-12-08T16:02:19.285Z,12.05
2022-12-08T16:05:33.243Z,13.38
2022-12-08T16:07:38.176Z,13.20
2022-12-08T16:10:07.759Z,14.30
2022-12-08T16:15:59.033Z,11.68
2022-12-08T16:18:29.965Z,12.35
2022-12-08T16:21:35.501Z,11.25
2022-12-08T16:23:45.502Z,12.32
2022-12-08T16:27:00.956Z,10.77
2022-12-08T16:29:07.179Z,12.73
2022-12-08T16:31:34.330Z,13.15
2022-12-08T16:34:01.156Z,11.63
2022-12-08T16:36:28.223Z,11.13
2022-12-08T16:38:55.173Z,14.60
2022-12-08T16:41:40.822Z,14.70
2022-12-08T16:44:07.670Z,11.93
2022-12-08T16:46:36.051Z,12.35
2022-12-08T16:49:04.749Z,12.98
2022-12-08T16:51:31.803Z,13.00
2022-12-08T16:53:58.708Z,13.32
2022-12-08T16:56:32.657Z,13.82
2022-12-08T16:59:01.371Z,13.43
2022-12-08T17:01:28.486Z,12.30
2022-12-08T17:04:29.916Z,13.02
2022-12-08T17:06:45.602Z,13.02
2022-12-08T17:09:12.513Z,12.68
2022-12-08T17:11:43.240Z,11.45
2022-12-08T17:14:11.510Z,12.80
2022-12-08T17:16:39.135Z,11.35
2022-12-08T17:19:06.011Z,13.10
2022-12-08T17:21:33.148Z,12.60
2022-12-08T17:23:59.873Z,10.98
2022-12-08T17:26:26.916Z,10.18
2022-12-08T17:29:01.553Z,12.00
2022-12-08T17:31:31.449Z,10.82
2022-12-08T17:34:00.995Z,10.48
2022-12-08T17:36:28.134Z,12.10
2022-12-08T17:38:55.370Z,11.50
2022-12-08T17:41:22.557Z,11.65
2022-12-08T17:43:49.312Z,12.27
2022-12-08T17:46:20.696Z,11.25
2022-12-08T17:48:47.671Z,10.68
2022-12-08T17:51:15.309Z,12.88
2022-12-08T17:53:42.146Z,10.82
2022-12-08T17:56:27.059Z,10.63
2022-12-08T17:58:54.999Z,11.98
2022-12-08T18:01:23.987Z,15.57
2022-12-08T18:03:51.367Z,14.57
2022-12-08T18:06:18.529Z,14.43
2022-12-08T18:08:45.500Z,13.02
2022-12-08T18:11:16.170Z,12.30
2022-12-08T18:13:43.601Z,11.98
2022-12-08T18:16:10.742Z,11.75
2022-12-08T18:18:37.500Z,11.95
2022-12-08T18:21:04.595Z,10.25
2022-12-08T18:23:34.435Z,10.68
2022-12-08T18:26:04.892Z,11.27
2022-12-08T18:28:32.062Z,11.75
2022-12-08T18:30:59.240Z,10.40
2022-12-08T18:33:26.696Z,9.88
2022-12-08T18:35:55.974Z,9.80
2022-12-08T18:38:22.725Z,11.43
2022-12-08T18:40:49.788Z,11.02
2022-12-08T18:43:16.514Z,10.15
2022-12-08T18:45:43.921Z,10.68
2022-12-08T18:48:10.714Z,10.52
2022-12-08T18:50:43.095Z,10.27
2022-12-08T18:53:09.935Z,10.77
2022-12-08T18:55:37.665Z,11.27
2022-12-08T18:58:04.411Z,11.20
2022-12-08T19:00:31.775Z,11.20
2022-12-08T19:02:58.545Z,11.52
2022-12-08T19:05:25.675Z,10.93
2022-12-08T19:07:52.819Z,11.50
2022-12-08T19:10:19.926Z,11.02
2022-12-08T19:12:50.624Z,11.65
2022-12-08T19:15:17.867Z,10.80
2022-12-08T19:17:44.665Z,11.65
2022-12-08T19:20:12.263Z,10.98
2022-12-08T19:22:39.059Z,11.50
2022-12-08T19:25:06.438Z,12.27
2022-12-08T19:27:34.204Z,11.40
2022-12-08T19:30:01.287Z,12.30
2022-12-08T19:32:29.956Z,11.73
2022-12-08T19:34:57.203Z,11.20
2022-12-08T19:37:23.941Z,10.80
2022-12-08T19:40:10.016Z,11.48
2022-12-08T19:42:55.407Z,11.32
2022-12-08T19:45:22.597Z,11.20
2022-12-08T19:47:49.504Z,10.73
2022-12-08T19:50:35.394Z,11.68
2022-12-08T19:53:10.671Z,11.30
2022-12-08T19:55:38.435Z,10.80
2022-12-08T19:58:06.209Z,12.07
2022-12-08T20:00:34.603Z,10.90
2022-12-08T20:03:02.466Z,11.02
2022-12-08T20:05:30.810Z,11.52
2022-12-08T20:07:57.707Z,12.70
2022-12-08T20:10:35.563Z,12.63
2022-12-08T20:13:21.814Z,10.30
2022-12-08T20:15:49.466Z,11.27
2022-12-08T20:18:16.788Z,11.95
2022-12-08T20:20:47.273Z,11.00
2022-12-08T20:23:15.611Z,13.35
2022-12-08T20:25:44.811Z,11.15
2022-12-08T20:28:11.891Z,11.25
2022-12-08T20:30:40.170Z,13.73
2022-12-08T20:33:07.146Z,12.05
2022-12-08T20:35:34.276Z,14.10
2022-12-08T20:38:01.123Z,13.18
2022-12-08T20:40:28.168Z,13.48
2022-12-08T20:42:54.999Z,13.25
2022-12-08T20:45:22.023Z,13.00
2022-12-08T20:47:49.098Z,14.25
2022-12-08T20:50:16.321Z,13.57
2022-12-08T20:52:43.348Z,13.68
2022-12-08T20:55:13.101Z,14.25
2022-12-08T20:57:40.137Z,13.48
2022-12-08T21:00:08.395Z,14.25
2022-12-08T21:02:35.509Z,12.25
2022-12-08T21:05:04.131Z,14.23
2022-12-08T21:07:31.121Z,13.43
2022-12-08T21:09:58.299Z,13.30
2022-12-08T21:12:25.338Z,13.10
2022-12-08T21:14:52.802Z,13.32
2022-12-08T21:17:19.678Z,14.77
2022-12-08T21:19:47.078Z,11.88
2022-12-08T21:22:14.319Z,12.85
2022-12-08T21:24:41.539Z,15.45
2022-12-08T21:27:08.716Z,13.82
2022-12-08T21:29:35.859Z,13.25
2022-12-08T21:32:02.912Z,12.57
2022-12-08T21:34:31.852Z,14.45
2022-12-08T21:36:58.851Z,12.43
2022-12-08T21:39:26.218Z,14.00
2022-12-08T21:42:12.759Z,14.48
2022-12-08T21:44:40.475Z,13.88
2022-12-08T21:47:07.496Z,13.32
2022-12-08T21:49:34.775Z,16.75
2022-12-08T21:52:01.935Z,14.73
2022-12-08T21:54:29.060Z,15.07
2022-12-08T21:56:55.862Z,15.63
2022-12-08T21:59:29.061Z,14.00
2022-12-08T22:01:55.968Z,15.50
2022-12-08T22:04:25.184Z,13.75
2022-12-08T22:06:52.411Z,14.70
2022-12-08T22:09:19.599Z,14.90
2022-12-08T22:11:46.931Z,15.70
2022-12-08T22:14:15.083Z,17.42
2022-12-08T22:16:43.301Z,15.55
2022-12-08T22:19:11.018Z,14.05
2022-12-08T22:21:38.215Z,15.32
2022-12-08T22:24:05.843Z,15.43
2022-12-08T22:26:32.656Z,16.67
2022-12-08T22:29:00.552Z,14.70
2022-12-08T22:31:28.078Z,16.02
2022-12-08T22:33:55.779Z,15.98
2022-12-08T22:36:24.724Z,15.00
2022-12-08T22:38:52.904Z,15.95
2022-12-08T22:41:20.544Z,16.17
2022-12-08T22:43:48.695Z,14.13
2022-12-08T22:46:22.087Z,16.50
2022-12-08T22:51:17.541Z,15.27
2022-12-08T22:53:45.227Z,14.80
2022-12-08T22:56:13.689Z,14.70
2022-12-08T22:58:44.444Z,15.35
2022-12-08T23:01:26.743Z,15.93
2022-12-08T23:03:54.140Z,15.70
2022-12-08T23:06:21.264Z,15.48
2022-12-08T23:08:48.753Z,15.93
2022-12-08T23:11:16.213Z,15.57
2022-12-08T23:13:43.838Z,14.52
2022-12-08T23:16:11.860Z,16.02
2022-12-08T23:18:43.209Z,15.90
2022-12-08T23:21:12.617Z,16.33
2022-12-08T23:23:39.737Z,15.82
2022-12-08T23:26:15.942Z,15.73
2022-12-08T23:28:43.283Z,16.33
2022-12-08T23:31:10.380Z,16.60
2022-12-08T23:33:37.508Z,16.20
2022-12-08T23:36:04.505Z,15.55
2022-12-08T23:38:31.668Z,16.73
2022-12-08T23:41:03.041Z,14.65
2022-12-08T23:43:30.132Z,16.20
2022-12-08T23:45:57.063Z,16.50
2022-12-08T23:48:24.478Z,16.33
2022-12-08T23:50:52.399Z,17.63
2022-12-08T23:53:19.506Z,16.77
2022-12-08T23:55:46.443Z,15.27
2022-12-08T23:58:13.614Z,17.10
